sensor_id;sensor_type;location;lat;lon;timestamp;pressure;altitude;pressure_sealevel;temperature;humidity
21902;BME280;11115;46.038;14.612;2023-04-03T00:01:01;98321.09;;;9.27;100.00
21902;BME280;11115;46.038;14.612;2023-04-03T00:03:40;98312.22;;;8.97;100.00
21902;BME280;11115;46.038;14.612;2023-04-03T00:06:14;98320.72;;;9.01;100.00
21902;BME280;11115;46.038;14.612;2023-04-03T00:08:49;98317.38;;;9.18;100.00
21902;BME280;11115;46.038;14.612;2023-04-03T00:11:19;98310.81;;;9.00;100.00
21902;BME280;11115;46.038;14.612;2023-04-03T00:13:49;98317.38;;;9.18;100.00
21902;BME280;11115;46.038;14.612;2023-04-03T00:16:18;98316.22;;;9.05;100.00
21902;BME280;11115;46.038;14.612;2023-04-03T00:18:54;98298.75;;;8.96;100.00
21902;BME280;11115;46.038;14.612;2023-04-03T00:21:26;98324.75;;;9.08;100.00
21902;BME280;11115;46.038;14.612;2023-04-03T00:23:59;98317.78;;;9.11;100.00
21902;BME280;11115;46.038;14.612;2023-04-03T00:26:28;98325.31;;;9.05;100.00
21902;BME280;11115;46.038;14.612;2023-04-03T00:28:57;98313.19;;;9.06;100.00
21902;BME280;11115;46.038;14.612;2023-04-03T00:31:31;98327.25;;;9.05;100.00
21902;BME280;11115;46.038;14.612;2023-04-03T00:34:03;98329.41;;;8.94;100.00
21902;BME280;11115;46.038;14.612;2023-04-03T00:36:34;98325.09;;;8.88;100.00
21902;BME280;11115;46.038;14.612;2023-04-03T00:39:16;98300.72;;;8.76;100.00
21902;BME280;11115;46.038;14.612;2023-04-03T00:41:49;98326.44;;;8.91;100.00
21902;BME280;11115;46.038;14.612;2023-04-03T00:47:19;98333.72;;;8.68;100.00
21902;BME280;11115;46.038;14.612;2023-04-03T00:49:54;98333.97;;;8.66;100.00
21902;BME280;11115;46.038;14.612;2023-04-03T00:52:37;98327.66;;;8.66;100.00
21902;BME280;11115;46.038;14.612;2023-04-03T00:55:07;98338.34;;;8.54;100.00
21902;BME280;11115;46.038;14.612;2023-04-03T00:57:47;98318.94;;;8.59;100.00
21902;BME280;11115;46.038;14.612;2023-04-03T01:00:27;98336.22;;;8.64;100.00
21902;BME280;11115;46.038;14.612;2023-04-03T01:03:06;98338.25;;;8.59;100.00
21902;BME280;11115;46.038;14.612;2023-04-03T01:05:40;98332.91;;;8.48;100.00
21902;BME280;11115;46.038;14.612;2023-04-03T01:08:13;98337.75;;;8.38;100.00
21902;BME280;11115;46.038;14.612;2023-04-03T01:10:49;98334.50;;;8.31;100.00
21902;BME280;11115;46.038;14.612;2023-04-03T01:13:29;98329.56;;;8.09;100.00
21902;BME280;11115;46.038;14.612;2023-04-03T01:16:05;98323.09;;;8.00;100.00
21902;BME280;11115;46.038;14.612;2023-04-03T01:18:41;98329.28;;;8.10;100.00
21902;BME280;11115;46.038;14.612;2023-04-03T01:21:47;98336.34;;;7.98;100.00
21902;BME280;11115;46.038;14.612;2023-04-03T01:24:37;98333.94;;;7.91;100.00
21902;BME280;11115;46.038;14.612;2023-04-03T01:27:10;98332.16;;;8.00;100.00
21902;BME280;11115;46.038;14.612;2023-04-03T01:29:45;98332.13;;;7.81;100.00
21902;BME280;11115;46.038;14.612;2023-04-03T01:32:21;98334.09;;;8.00;100.00
21902;BME280;11115;46.038;14.612;2023-04-03T01:34:59;98334.31;;;8.03;100.00
21902;BME280;11115;46.038;14.612;2023-04-03T01:37:38;98283.94;;;7.60;100.00
21902;BME280;11115;46.038;14.612;2023-04-03T01:40:21;98313.53;;;7.73;100.00
21902;BME280;11115;46.038;14.612;2023-04-03T01:43:03;98346.28;;;7.75;100.00
21902;BME280;11115;46.038;14.612;2023-04-03T01:45:39;98340.75;;;7.75;100.00
21902;BME280;11115;46.038;14.612;2023-04-03T01:48:13;98350.88;;;7.79;100.00
21902;BME280;11115;46.038;14.612;2023-04-03T01:51:00;98352.53;;;7.80;100.00
21902;BME280;11115;46.038;14.612;2023-04-03T01:53:43;98325.88;;;7.52;100.00
21902;BME280;11115;46.038;14.612;2023-04-03T01:56:28;98334.09;;;7.57;100.00
21902;BME280;11115;46.038;14.612;2023-04-03T01:59:00;98343.47;;;7.56;100.00
21902;BME280;11115;46.038;14.612;2023-04-03T02:01:36;98341.41;;;7.43;100.00
21902;BME280;11115;46.038;14.612;2023-04-03T02:04:13;98360.59;;;7.48;100.00
21902;BME280;11115;46.038;14.612;2023-04-03T02:06:48;98359.31;;;7.40;100.00
21902;BME280;11115;46.038;14.612;2023-04-03T02:09:25;98345.66;;;7.30;100.00
21902;BME280;11115;46.038;14.612;2023-04-03T02:12:02;98355.44;;;7.41;100.00
21902;BME280;11115;46.038;14.612;2023-04-03T02:14:47;98349.63;;;7.19;100.00
21902;BME280;11115;46.038;14.612;2023-04-03T02:17:21;98335.97;;;7.09;100.00
21902;BME280;11115;46.038;14.612;2023-04-03T02:19:54;98362.06;;;7.11;100.00
21902;BME280;11115;46.038;14.612;2023-04-03T02:22:24;98352.28;;;7.00;100.00
21902;BME280;11115;46.038;14.612;2023-04-03T02:25:13;98330.94;;;6.87;100.00
21902;BME280;11115;46.038;14.612;2023-04-03T02:27:45;98349.03;;;6.93;100.00
21902;BME280;11115;46.038;14.612;2023-04-03T02:30:15;98360.19;;;6.78;100.00
21902;BME280;11115;46.038;14.612;2023-04-03T02:32:46;98357.13;;;6.79;100.00
21902;BME280;11115;46.038;14.612;2023-04-03T02:35:16;98335.78;;;6.66;100.00
21902;BME280;11115;46.038;14.612;2023-04-03T02:37:48;98366.03;;;6.66;100.00
21902;BME280;11115;46.038;14.612;2023-04-03T02:40:38;98370.88;;;6.40;100.00
21902;BME280;11115;46.038;14.612;2023-04-03T02:43:06;98365.97;;;6.37;100.00
21902;BME280;11115;46.038;14.612;2023-04-03T02:45:37;98365.84;;;6.08;100.00
21902;BME280;11115;46.038;14.612;2023-04-03T02:48:09;98374.59;;;6.15;100.00
21902;BME280;11115;46.038;14.612;2023-04-03T02:50:39;98357.81;;;6.22;100.00
21902;BME280;11115;46.038;14.612;2023-04-03T02:53:15;98370.44;;;6.23;100.00
21902;BME280;11115;46.038;14.612;2023-04-03T02:56:03;98364.28;;;5.92;100.00
21902;BME280;11115;46.038;14.612;2023-04-03T02:58:38;98377.97;;;5.97;100.00
21902;BME280;11115;46.038;14.612;2023-04-03T03:01:17;98376.78;;;6.13;100.00
21902;BME280;11115;46.038;14.612;2023-04-03T03:03:53;98377.06;;;6.12;100.00
21902;BME280;11115;46.038;14.612;2023-04-03T03:06:36;98364.97;;;6.18;100.00
21902;BME280;11115;46.038;14.612;2023-04-03T03:09:10;98376.31;;;5.96;100.00
21902;BME280;11115;46.038;14.612;2023-04-03T03:11:43;98379.13;;;5.81;100.00
21902;BME280;11115;46.038;14.612;2023-04-03T03:14:23;98373.06;;;5.84;100.00
21902;BME280;11115;46.038;14.612;2023-04-03T03:16:55;98377.75;;;5.83;100.00
21902;BME280;11115;46.038;14.612;2023-04-03T03:19:28;98371.50;;;5.62;100.00
21902;BME280;11115;46.038;14.612;2023-04-03T03:21:57;98359.72;;;5.52;100.00
21902;BME280;11115;46.038;14.612;2023-04-03T03:24:31;98380.00;;;5.66;100.00
21902;BME280;11115;46.038;14.612;2023-04-03T03:27:03;98373.97;;;5.54;100.00
21902;BME280;11115;46.038;14.612;2023-04-03T03:29:33;98365.53;;;5.35;100.00
21902;BME280;11115;46.038;14.612;2023-04-03T03:32:08;98326.63;;;5.17;100.00
21902;BME280;11115;46.038;14.612;2023-04-03T03:34:45;98390.75;;;5.37;100.00
21902;BME280;11115;46.038;14.612;2023-04-03T03:37:17;98384.19;;;5.33;100.00
21902;BME280;11115;46.038;14.612;2023-04-03T03:39:46;98381.97;;;5.50;100.00
21902;BME280;11115;46.038;14.612;2023-04-03T03:42:29;98386.63;;;5.39;100.00
21902;BME280;11115;46.038;14.612;2023-04-03T03:45:06;98365.22;;;5.46;100.00
21902;BME280;11115;46.038;14.612;2023-04-03T03:47:36;98383.38;;;5.27;100.00
21902;BME280;11115;46.038;14.612;2023-04-03T03:50:21;98368.88;;;5.11;100.00
21902;BME280;11115;46.038;14.612;2023-04-03T03:52:53;98394.09;;;5.08;100.00
21902;BME280;11115;46.038;14.612;2023-04-03T03:55:28;98388.88;;;5.12;100.00
21902;BME280;11115;46.038;14.612;2023-04-03T03:58:08;98398.50;;;5.04;100.00
21902;BME280;11115;46.038;14.612;2023-04-03T04:00:42;98400.41;;;4.94;100.00
21902;BME280;11115;46.038;14.612;2023-04-03T04:03:15;98388.91;;;5.02;100.00
21902;BME280;11115;46.038;14.612;2023-04-03T04:05:50;98389.16;;;4.95;100.00
21902;BME280;11115;46.038;14.612;2023-04-03T04:08:22;98388.34;;;4.84;100.00
21902;BME280;11115;46.038;14.612;2023-04-03T04:11:09;98381.75;;;4.75;100.00
21902;BME280;11115;46.038;14.612;2023-04-03T04:13:50;98396.56;;;4.79;100.00
21902;BME280;11115;46.038;14.612;2023-04-03T04:16:23;98375.44;;;4.54;100.00
21902;BME280;11115;46.038;14.612;2023-04-03T04:18:57;98396.50;;;4.39;100.00
21902;BME280;11115;46.038;14.612;2023-04-03T04:21:34;98375.16;;;4.41;100.00
21902;BME280;11115;46.038;14.612;2023-04-03T04:24:13;98390.25;;;4.53;100.00
21902;BME280;11115;46.038;14.612;2023-04-03T04:26:49;98399.31;;;4.64;100.00
21902;BME280;11115;46.038;14.612;2023-04-03T04:29:22;98386.41;;;4.49;100.00
21902;BME280;11115;46.038;14.612;2023-04-03T04:31:56;98400.97;;;4.65;100.00
21902;BME280;11115;46.038;14.612;2023-04-03T04:34:34;98407.78;;;4.52;100.00
21902;BME280;11115;46.038;14.612;2023-04-03T04:37:09;98405.03;;;4.57;100.00
21902;BME280;11115;46.038;14.612;2023-04-03T04:39:50;98405.59;;;4.49;100.00
21902;BME280;11115;46.038;14.612;2023-04-03T04:42:21;98398.72;;;4.42;100.00
21902;BME280;11115;46.038;14.612;2023-04-03T04:44:52;98415.44;;;4.55;100.00
21902;BME280;11115;46.038;14.612;2023-04-03T04:47:28;98417.31;;;4.35;100.00
21902;BME280;11115;46.038;14.612;2023-04-03T04:50:16;98419.53;;;4.43;100.00
21902;BME280;11115;46.038;14.612;2023-04-03T04:52:49;98416.50;;;4.34;100.00
21902;BME280;11115;46.038;14.612;2023-04-03T04:55:34;98422.47;;;4.16;100.00
21902;BME280;11115;46.038;14.612;2023-04-03T04:58:06;98393.72;;;4.13;100.00
21902;BME280;11115;46.038;14.612;2023-04-03T05:00:40;98421.66;;;4.20;100.00
21902;BME280;11115;46.038;14.612;2023-04-03T05:03:14;98410.69;;;4.15;100.00
21902;BME280;11115;46.038;14.612;2023-04-03T05:05:57;98423.03;;;4.23;100.00
21902;BME280;11115;46.038;14.612;2023-04-03T05:08:33;98425.53;;;4.30;100.00
21902;BME280;11115;46.038;14.612;2023-04-03T05:11:02;98421.13;;;4.23;100.00
21902;BME280;11115;46.038;14.612;2023-04-03T05:13:33;98434.84;;;4.29;100.00
21902;BME280;11115;46.038;14.612;2023-04-03T05:16:13;98437.81;;;4.17;100.00
21902;BME280;11115;46.038;14.612;2023-04-03T05:18:41;98428.28;;;4.24;100.00
21902;BME280;11115;46.038;14.612;2023-04-03T05:21:17;98437.25;;;4.15;100.00
21902;BME280;11115;46.038;14.612;2023-04-03T05:23:53;98434.31;;;4.32;100.00
21902;BME280;11115;46.038;14.612;2023-04-03T05:26:24;98438.38;;;4.24;100.00
21902;BME280;11115;46.038;14.612;2023-04-03T05:28:55;98433.19;;;4.28;100.00
21902;BME280;11115;46.038;14.612;2023-04-03T05:31:26;98449.09;;;4.36;100.00
21902;BME280;11115;46.038;14.612;2023-04-03T05:34:00;98440.09;;;4.45;100.00
21902;BME280;11115;46.038;14.612;2023-04-03T05:36:34;98450.75;;;4.37;100.00
21902;BME280;11115;46.038;14.612;2023-04-03T05:39:22;98447.50;;;4.55;100.00
21902;BME280;11115;46.038;14.612;2023-04-03T05:41:55;98454.91;;;4.54;100.00
21902;BME280;11115;46.038;14.612;2023-04-03T05:44:38;98449.75;;;4.88;100.00
21902;BME280;11115;46.038;14.612;2023-04-03T05:47:17;98436.88;;;4.89;100.00
21902;BME280;11115;46.038;14.612;2023-04-03T05:49:51;98427.81;;;4.99;100.00
21902;BME280;11115;46.038;14.612;2023-04-03T05:52:26;98449.22;;;5.02;100.00
21902;BME280;11115;46.038;14.612;2023-04-03T05:54:54;98443.19;;;4.84;100.00
21902;BME280;11115;46.038;14.612;2023-04-03T05:57:31;98450.28;;;5.01;100.00
21902;BME280;11115;46.038;14.612;2023-04-03T06:00:08;98443.75;;;5.02;100.00
21902;BME280;11115;46.038;14.612;2023-04-03T06:02:50;98444.50;;;5.53;100.00
21902;BME280;11115;46.038;14.612;2023-04-03T06:05:25;98459.09;;;5.43;100.00
21902;BME280;11115;46.038;14.612;2023-04-03T06:07:57;98448.34;;;5.57;100.00
21902;BME280;11115;46.038;14.612;2023-04-03T06:10:31;98401.19;;;5.45;100.00
21902;BME280;11115;46.038;14.612;2023-04-03T06:13:06;98457.34;;;5.98;100.00
21902;BME280;11115;46.038;14.612;2023-04-03T06:15:45;98436.75;;;5.86;100.00
21902;BME280;11115;46.038;14.612;2023-04-03T06:18:17;98449.56;;;6.16;100.00
21902;BME280;11115;46.038;14.612;2023-04-03T06:20:49;98414.47;;;5.97;100.00
21902;BME280;11115;46.038;14.612;2023-04-03T06:23:23;98458.53;;;6.42;100.00
21902;BME280;11115;46.038;14.612;2023-04-03T06:25:53;98457.31;;;6.63;100.00
21902;BME280;11115;46.038;14.612;2023-04-03T06:28:23;98458.09;;;6.68;100.00
21902;BME280;11115;46.038;14.612;2023-04-03T06:30:54;98459.44;;;6.71;100.00
21902;BME280;11115;46.038;14.612;2023-04-03T06:33:25;98438.59;;;6.65;100.00
21902;BME280;11115;46.038;14.612;2023-04-03T06:36:04;98447.34;;;6.77;100.00
21902;BME280;11115;46.038;14.612;2023-04-03T06:38:44;98448.81;;;6.54;100.00
21902;BME280;11115;46.038;14.612;2023-04-03T06:41:14;98450.09;;;6.72;100.00
21902;BME280;11115;46.038;14.612;2023-04-03T06:43:47;98445.25;;;6.98;100.00
21902;BME280;11115;46.038;14.612;2023-04-03T06:46:21;98459.53;;;7.00;100.00
21902;BME280;11115;46.038;14.612;2023-04-03T06:48:51;98459.72;;;7.14;100.00
21902;BME280;11115;46.038;14.612;2023-04-03T06:51:29;98450.03;;;7.21;100.00
21902;BME280;11115;46.038;14.612;2023-04-03T06:54:07;98451.09;;;7.25;100.00
21902;BME280;11115;46.038;14.612;2023-04-03T06:56:39;98451.34;;;7.58;100.00
21902;BME280;11115;46.038;14.612;2023-04-03T06:59:12;98448.59;;;7.58;100.00
21902;BME280;11115;46.038;14.612;2023-04-03T07:01:49;98452.50;;;7.52;100.00
21902;BME280;11115;46.038;14.612;2023-04-03T07:04:28;98437.81;;;7.61;100.00
21902;BME280;11115;46.038;14.612;2023-04-03T07:07:00;98440.66;;;7.80;100.00
21902;BME280;11115;46.038;14.612;2023-04-03T07:09:45;98442.59;;;8.04;100.00
21902;BME280;11115;46.038;14.612;2023-04-03T07:12:31;98447.16;;;7.89;100.00
21902;BME280;11115;46.038;14.612;2023-04-03T07:15:06;98390.44;;;7.65;100.00
21902;BME280;11115;46.038;14.612;2023-04-03T07:17:46;98457.09;;;7.90;100.00
21902;BME280;11115;46.038;14.612;2023-04-03T07:20:21;98401.16;;;7.90;100.00
21902;BME280;11115;46.038;14.612;2023-04-03T07:22:53;98445.16;;;8.19;100.00
21902;BME280;11115;46.038;14.612;2023-04-03T07:25:24;98455.44;;;8.37;100.00
21902;BME280;11115;46.038;14.612;2023-04-03T07:28:10;98443.81;;;8.40;100.00
21902;BME280;11115;46.038;14.612;2023-04-03T07:30:52;98452.00;;;8.69;100.00
21902;BME280;11115;46.038;14.612;2023-04-03T07:33:22;98449.34;;;8.59;100.00
21902;BME280;11115;46.038;14.612;2023-04-03T07:35:55;98447.59;;;8.68;100.00
21902;BME280;11115;46.038;14.612;2023-04-03T07:38:25;98435.50;;;8.64;100.00
21902;BME280;11115;46.038;14.612;2023-04-03T07:40:58;98400.38;;;8.32;100.00
21902;BME280;11115;46.038;14.612;2023-04-03T07:43:29;98439.38;;;8.63;100.00
21902;BME280;11115;46.038;14.612;2023-04-03T07:45:58;98446.00;;;8.81;100.00
21902;BME280;11115;46.038;14.612;2023-04-03T07:48:30;98436.31;;;8.65;100.00
21902;BME280;11115;46.038;14.612;2023-04-03T07:51:05;98450.50;;;8.77;100.00
21902;BME280;11115;46.038;14.612;2023-04-03T07:53:37;98449.38;;;8.78;100.00
21902;BME280;11115;46.038;14.612;2023-04-03T07:56:12;98443.72;;;8.88;100.00
21902;BME280;11115;46.038;14.612;2023-04-03T07:58:47;98442.66;;;8.84;100.00
21902;BME280;11115;46.038;14.612;2023-04-03T08:01:28;98455.56;;;8.89;100.00
21902;BME280;11115;46.038;14.612;2023-04-03T08:04:00;98429.34;;;9.05;100.00
21902;BME280;11115;46.038;14.612;2023-04-03T08:06:44;98416.69;;;9.04;100.00
21902;BME280;11115;46.038;14.612;2023-04-03T08:09:15;98440.84;;;9.12;100.00
21902;BME280;11115;46.038;14.612;2023-04-03T08:11:51;98446.72;;;9.24;100.00
21902;BME280;11115;46.038;14.612;2023-04-03T08:14:32;98442.50;;;9.46;100.00
21902;BME280;11115;46.038;14.612;2023-04-03T08:17:09;98448.06;;;9.59;100.00
21902;BME280;11115;46.038;14.612;2023-04-03T08:19:54;98454.81;;;9.53;100.00
21902;BME280;11115;46.038;14.612;2023-04-03T08:22:26;98447.06;;;9.69;100.00
21902;BME280;11115;46.038;14.612;2023-04-03T08:24:59;98445.06;;;9.88;100.00
21902;BME280;11115;46.038;14.612;2023-04-03T08:27:35;98443.53;;;10.10;100.00
21902;BME280;11115;46.038;14.612;2023-04-03T08:30:07;98446.88;;;9.79;100.00
21902;BME280;11115;46.038;14.612;2023-04-03T08:32:44;98442.16;;;9.80;98.66
21902;BME280;11115;46.038;14.612;2023-04-03T08:35:17;98444.63;;;9.67;93.50
21902;BME280;11115;46.038;14.612;2023-04-03T08:37:48;98431.31;;;9.97;100.00
21902;BME280;11115;46.038;14.612;2023-04-03T08:40:20;98433.09;;;10.07;100.00
21902;BME280;11115;46.038;14.612;2023-04-03T08:44:24;98442.97;;;9.80;87.58
21902;BME280;11115;46.038;14.612;2023-04-03T08:49:51;98433.78;;;10.12;100.00
21902;BME280;11115;46.038;14.612;2023-04-03T08:52:49;98454.97;;;10.58;100.00
21902;BME280;11115;46.038;14.612;2023-04-03T08:55:33;98451.53;;;10.39;92.61
21902;BME280;11115;46.038;14.612;2023-04-03T08:58:21;98450.31;;;10.45;90.29
21902;BME280;11115;46.038;14.612;2023-04-03T09:01:26;98466.19;;;10.25;85.84
21902;BME280;11115;46.038;14.612;2023-04-03T09:03:57;98466.47;;;10.51;87.40
21902;BME280;11115;46.038;14.612;2023-04-03T09:06:31;98463.72;;;10.51;83.56
21902;BME280;11115;46.038;14.612;2023-04-03T09:09:31;98446.59;;;10.08;76.34
21902;BME280;11115;46.038;14.612;2023-04-03T09:12:17;98464.91;;;10.59;88.17
21902;BME280;11115;46.038;14.612;2023-04-03T09:15:22;98461.78;;;10.24;74.26
21902;BME280;11115;46.038;14.612;2023-04-03T09:18:10;98455.13;;;10.25;71.33
21902;BME280;11115;46.038;14.612;2023-04-03T09:24:05;98446.53;;;10.90;76.83
21902;BME280;11115;46.038;14.612;2023-04-03T09:26:44;98458.91;;;10.93;74.75
21902;BME280;11115;46.038;14.612;2023-04-03T09:29:22;98449.94;;;11.10;76.65
21902;BME280;11115;46.038;14.612;2023-04-03T09:32:18;98444.59;;;10.41;77.95
21902;BME280;11115;46.038;14.612;2023-04-03T09:35:18;98454.63;;;10.23;79.60
21902;BME280;11115;46.038;14.612;2023-04-03T09:38:29;98404.72;;;10.78;68.10
21902;BME280;11115;46.038;14.612;2023-04-03T09:41:16;98445.50;;;10.86;68.51
21902;BME280;11115;46.038;14.612;2023-04-03T09:43:55;98438.72;;;10.92;78.35
21902;BME280;11115;46.038;14.612;2023-04-03T09:46:31;98440.00;;;10.73;72.31
21902;BME280;11115;46.038;14.612;2023-04-03T09:49:02;98432.00;;;11.30;76.07
21902;BME280;11115;46.038;14.612;2023-04-03T09:51:36;98423.59;;;11.88;77.49
21902;BME280;11115;46.038;14.612;2023-04-03T09:54:34;98419.06;;;12.49;76.30
21902;BME280;11115;46.038;14.612;2023-04-03T09:57:18;98418.31;;;12.92;96.83
21902;BME280;11115;46.038;14.612;2023-04-03T09:59:57;98427.28;;;12.54;78.45
21902;BME280;11115;46.038;14.612;2023-04-03T10:02:35;98430.28;;;11.87;81.70
21902;BME280;11115;46.038;14.612;2023-04-03T10:11:14;98430.56;;;11.10;71.74
21902;BME280;11115;46.038;14.612;2023-04-03T10:13:56;98429.94;;;11.13;75.62
21902;BME280;11115;46.038;14.612;2023-04-03T10:16:41;98421.25;;;11.06;78.29
21902;BME280;11115;46.038;14.612;2023-04-03T10:19:41;98434.41;;;11.00;75.72
21902;BME280;11115;46.038;14.612;2023-04-03T10:22:46;98414.81;;;10.97;72.47
21902;BME280;11115;46.038;14.612;2023-04-03T10:25:36;98427.28;;;11.30;78.90
21902;BME280;11115;46.038;14.612;2023-04-03T10:31:21;98420.13;;;10.71;74.57
21902;BME280;11115;46.038;14.612;2023-04-03T10:38:10;98437.66;;;10.66;75.65
21902;BME280;11115;46.038;14.612;2023-04-03T10:41:02;98424.06;;;11.37;77.28
21902;BME280;11115;46.038;14.612;2023-04-03T10:43:59;98421.56;;;12.11;82.33
21902;BME280;11115;46.038;14.612;2023-04-03T10:46:55;98425.41;;;11.17;72.70
21902;BME280;11115;46.038;14.612;2023-04-03T10:50:05;98439.94;;;11.00;69.92
21902;BME280;11115;46.038;14.612;2023-04-03T10:55:53;98415.56;;;11.55;79.36
21902;BME280;11115;46.038;14.612;2023-04-03T10:58:36;98429.19;;;11.74;80.21
21902;BME280;11115;46.038;14.612;2023-04-03T11:01:17;98417.03;;;11.31;71.62
21902;BME280;11115;46.038;14.612;2023-04-03T11:03:51;98400.72;;;10.84;72.07
21902;BME280;11115;46.038;14.612;2023-04-03T11:06:28;98396.84;;;11.08;65.96
21902;BME280;11115;46.038;14.612;2023-04-03T11:09:23;98402.94;;;11.41;71.72
21902;BME280;11115;46.038;14.612;2023-04-03T11:12:13;98396.06;;;11.16;67.12
21902;BME280;11115;46.038;14.612;2023-04-03T11:14:55;98410.31;;;11.23;71.25
21902;BME280;11115;46.038;14.612;2023-04-03T11:17:39;98405.97;;;11.08;71.34
21902;BME280;11115;46.038;14.612;2023-04-03T11:20:33;98398.72;;;12.05;70.21
21902;BME280;11115;46.038;14.612;2023-04-03T11:23:28;98385.00;;;12.00;72.31
21902;BME280;11115;46.038;14.612;2023-04-03T11:26:21;98374.03;;;12.52;71.39
21902;BME280;11115;46.038;14.612;2023-04-03T11:29:03;98386.97;;;12.91;76.05
21902;BME280;11115;46.038;14.612;2023-04-03T11:34:56;98397.41;;;11.41;71.20
21902;BME280;11115;46.038;14.612;2023-04-03T11:40:33;98375.38;;;11.13;64.18
21902;BME280;11115;46.038;14.612;2023-04-03T11:43:27;98354.97;;;12.59;65.31
21902;BME280;11115;46.038;14.612;2023-04-03T11:46:13;98356.41;;;13.08;65.41
21902;BME280;11115;46.038;14.612;2023-04-03T11:48:58;98343.00;;;13.36;67.36
21902;BME280;11115;46.038;14.612;2023-04-03T11:51:38;98337.34;;;13.71;59.87
21902;BME280;11115;46.038;14.612;2023-04-03T11:54:47;98345.31;;;13.34;55.57
21902;BME280;11115;46.038;14.612;2023-04-03T11:57:45;98338.25;;;14.51;63.54
21902;BME280;11115;46.038;14.612;2023-04-03T12:08:52;98325.19;;;14.64;50.92
21902;BME280;11115;46.038;14.612;2023-04-03T12:11:33;98326.63;;;14.70;50.49
21902;BME280;11115;46.038;14.612;2023-04-03T12:14:12;98317.94;;;15.38;54.46
21902;BME280;11115;46.038;14.612;2023-04-03T12:16:47;98308.81;;;15.04;48.85
21902;BME280;11115;46.038;14.612;2023-04-03T12:19:41;98303.81;;;15.55;46.76
21902;BME280;11115;46.038;14.612;2023-04-03T12:22:19;98291.44;;;15.19;48.96
21902;BME280;11115;46.038;14.612;2023-04-03T12:24:55;98301.38;;;15.54;52.76
21902;BME280;11115;46.038;14.612;2023-04-03T12:27:34;98286.88;;;16.33;52.61
21902;BME280;11115;46.038;14.612;2023-04-03T12:30:21;98290.50;;;15.15;48.43
21902;BME280;11115;46.038;14.612;2023-04-03T12:33:32;98290.75;;;15.80;47.99
21902;BME280;11115;46.038;14.612;2023-04-03T12:36:26;98276.94;;;15.84;45.64
21902;BME280;11115;46.038;14.612;2023-04-03T12:39:22;98294.78;;;17.40;42.94
21902;BME280;11115;46.038;14.612;2023-04-03T12:45:23;98286.38;;;24.05;30.80
21902;BME280;11115;46.038;14.612;2023-04-03T12:48:01;98275.50;;;24.10;30.09
21902;BME280;11115;46.038;14.612;2023-04-03T12:50:39;98286.94;;;19.36;33.68
21902;BME280;11115;46.038;14.612;2023-04-03T12:53:36;98281.38;;;18.43;41.41
21902;BME280;11115;46.038;14.612;2023-04-03T12:56:27;98285.84;;;18.29;39.33
21902;BME280;11115;46.038;14.612;2023-04-03T12:59:23;98270.75;;;18.88;41.96
21902;BME280;11115;46.038;14.612;2023-04-03T13:02:00;98278.53;;;20.05;43.86
21902;BME280;11115;46.038;14.612;2023-04-03T13:04:31;98278.91;;;18.07;39.92
21902;BME280;11115;46.038;14.612;2023-04-03T13:07:00;98265.50;;;18.67;39.17
21902;BME280;11115;46.038;14.612;2023-04-03T13:09:34;98264.38;;;18.17;36.18
21902;BME280;11115;46.038;14.612;2023-04-03T13:12:15;98267.31;;;19.36;39.43
21902;BME280;11115;46.038;14.612;2023-04-03T13:15:01;98262.84;;;20.27;36.16
21902;BME280;11115;46.038;14.612;2023-04-03T13:17:39;98275.19;;;22.89;34.58
21902;BME280;11115;46.038;14.612;2023-04-03T13:20:30;98264.03;;;24.96;30.18
21902;BME280;11115;46.038;14.612;2023-04-03T13:23:05;98258.78;;;23.16;29.38
21902;BME280;11115;46.038;14.612;2023-04-03T13:25:41;98270.63;;;24.29;28.01
21902;BME280;11115;46.038;14.612;2023-04-03T13:28:26;98258.06;;;24.62;29.58
21902;BME280;11115;46.038;14.612;2023-04-03T13:31:45;98255.69;;;23.60;30.94
21902;BME280;11115;46.038;14.612;2023-04-03T13:34:20;98208.19;;;26.21;29.34
21902;BME280;11115;46.038;14.612;2023-04-03T13:37:00;98253.63;;;24.61;29.81
21902;BME280;11115;46.038;14.612;2023-04-03T13:39:38;98241.28;;;21.65;30.86
21902;BME280;11115;46.038;14.612;2023-04-03T13:42:22;98238.28;;;23.44;32.19
21902;BME280;11115;46.038;14.612;2023-04-03T13:45:22;98241.59;;;22.66;28.06
21902;BME280;11115;46.038;14.612;2023-04-03T13:48:18;98241.22;;;22.75;27.94
21902;BME280;11115;46.038;14.612;2023-04-03T13:51:27;98235.78;;;24.81;25.35
21902;BME280;11115;46.038;14.612;2023-04-03T13:54:01;98250.22;;;25.85;27.54
21902;BME280;11115;46.038;14.612;2023-04-03T13:56:46;98211.28;;;26.75;25.17
21902;BME280;11115;46.038;14.612;2023-04-03T14:02:50;98245.03;;;27.61;22.42
21902;BME280;11115;46.038;14.612;2023-04-03T14:04:59;98235.13;;;25.36;24.71
21902;BME280;11115;46.038;14.612;2023-04-03T14:07:31;98239.22;;;26.77;25.20
21902;BME280;11115;46.038;14.612;2023-04-03T14:10:08;98220.19;;;26.40;23.04
21902;BME280;11115;46.038;14.612;2023-04-03T14:12:40;98216.00;;;27.77;24.48
21902;BME280;11115;46.038;14.612;2023-04-03T14:15:24;98222.25;;;25.28;25.15
21902;BME280;11115;46.038;14.612;2023-04-03T14:17:55;98225.44;;;23.97;26.13
21902;BME280;11115;46.038;14.612;2023-04-03T14:20:29;98234.63;;;21.88;26.44
21902;BME280;11115;46.038;14.612;2023-04-03T14:22:58;98237.22;;;20.88;27.72
21902;BME280;11115;46.038;14.612;2023-04-03T14:25:45;98230.94;;;20.12;28.70
21902;BME280;11115;46.038;14.612;2023-04-03T14:28:22;98206.78;;;19.13;30.46
21902;BME280;11115;46.038;14.612;2023-04-03T14:30:55;98221.84;;;18.11;30.65
21902;BME280;11115;46.038;14.612;2023-04-03T14:33:26;98220.69;;;18.67;32.25
21902;BME280;11115;46.038;14.612;2023-04-03T14:35:57;98195.59;;;20.68;29.25
21902;BME280;11115;46.038;14.612;2023-04-03T14:38:29;98208.16;;;19.22;29.19